»·PEaware :: N822JH L88-KSBP

N822JH :: L88-KSBP

FLIGHT INFORMATION

Flight Status: Arrived
Operator: Privately registered:
United States
More flights under this callsign
Pilot: Aleksandr Z. (18023)
Aircraft: PIPER PA-24 COMMANCHE
(PA24)
More flights by this aircraft type
Origin: L88 New Cuyama
United States
Destination: KSBP San Luis Co Regl
United States
More flights between these airports :: More routes between these airports
Route:
File this flight plan on PilotEdge
Remarks: Novice, Live Weather AS16
Altitude:
(Current/Filed)
6,500ft
Speed:
(Current/Filed)
160kts
Departed: 25-Jan-19 11:07 AM
Arrived: 25-Jan-19 11:34 AM
Distance/Time
Traveled:
50nm/0:27
Distance/Time
To Go:
Arrived

Flight Plot

Page will automatically refresh every two minutes.


Map Options




Map Legend


Flown Route
Filed Route
Departure Airport
Arrival Airport
Navaid (VOR, NDB)
Fix

Horizontal Profiles

Position Reports

Time Latitude Longitude Heading Altitude Ground
Speed
25-Jan-19 10:57 34.942549 -119.689760 290 2206ft 0kts
25-Jan-19 10:58 34.942549 -119.689761 290 2206ft 0kts
25-Jan-19 10:58 34.942550 -119.689763 290 2206ft 0kts
25-Jan-19 11:00 34.942776 -119.690973 297 2206ft 0kts
25-Jan-19 11:00 34.942777 -119.690976 297 2206ft 0kts
25-Jan-19 11:01 34.942559 -119.691336 198 2206ft 7kts
25-Jan-19 11:02 34.940320 -119.686482 116 2206ft 24kts
25-Jan-19 11:03 34.937480 -119.680237 107 2206ft 2kts
25-Jan-19 11:04 34.937478 -119.680227 107 2206ft 0kts
25-Jan-19 11:05 34.937473 -119.680209 107 2206ft 1kts
25-Jan-19 11:06 34.943315 -119.694547 293 2471ft 100kts
25-Jan-19 11:07 34.955180 -119.728575 295 3765ft 112kts
25-Jan-19 11:08 34.970151 -119.764814 297 4998ft 121kts
25-Jan-19 11:09 34.986815 -119.806018 297 5521ft 155kts
25-Jan-19 11:10 35.006168 -119.853527 297 5522ft 158kts
25-Jan-19 11:11 35.026187 -119.902375 297 5504ft 157kts
25-Jan-19 11:12 35.045765 -119.949905 297 5505ft 159kts
25-Jan-19 11:13 35.064558 -119.995474 297 6366ft 145kts
25-Jan-19 11:14 35.083462 -120.041828 297 6485ft 161kts
25-Jan-19 11:15 35.103872 -120.091437 297 6482ft 160kts
25-Jan-19 11:16 35.121504 -120.139461 280 6477ft 156kts
25-Jan-19 11:17 35.117353 -120.192263 258 6477ft 154kts
25-Jan-19 11:18 35.123805 -120.243404 282 6479ft 153kts
25-Jan-19 11:19 35.132325 -120.294621 283 6478ft 153kts
25-Jan-19 11:20 35.143732 -120.345102 287 6473ft 154kts
25-Jan-19 11:21 35.156390 -120.394859 288 6474ft 152kts
25-Jan-19 11:22 35.167080 -120.436053 288 6149ft 109kts
25-Jan-19 11:23 35.175562 -120.469061 288 6046ft 92kts
25-Jan-19 11:24 35.183802 -120.501490 288 5443ft 105kts
25-Jan-19 11:25 35.192754 -120.537222 288 4416ft 116kts
25-Jan-19 11:26 35.202502 -120.577149 288 2980ft 134kts
25-Jan-19 11:27 35.221011 -120.612631 301 2062ft 108kts
25-Jan-19 11:28 35.239001 -120.645019 301 1149ft 100kts
25-Jan-19 11:29 35.223213 -120.662978 137 1185ft 109kts
25-Jan-19 11:30 35.206531 -120.630561 120 1241ft 115kts
25-Jan-19 11:31 35.208424 -120.605730 30 1014ft 85kts
25-Jan-19 11:32 35.225647 -120.620503 307 601ft 81kts
25-Jan-19 11:33 35.236223 -120.639151 313 215ft 13kts
25-Jan-19 11:34 35.237515 -120.640000 17 215ft 0kts
25-Jan-19 11:35 35.237517 -120.640000 17 215ft 0kts
25-Jan-19 11:36 35.237518 -120.639999 17 215ft 0kts
25-Jan-19 11:37 35.237519 -120.639999 17 215ft 0kts
25-Jan-19 11:38 35.237221 -120.638946 123 215ft 11kts
25-Jan-19 11:39 35.236205 -120.636091 108 215ft 9kts
25-Jan-19 11:40 35.235981 -120.635950 35 215ft 0kts
25-Jan-19 11:41 35.235930 -120.635996 35 215ft 0kts
25-Jan-19 11:42 35.235930 -120.635996 35 215ft 0kts
25-Jan-19 11:43 35.235930 -120.635996 35 215ft 0kts
25-Jan-19 11:44 35.235930 -120.635996 35 215ft 0kts
25-Jan-19 11:45 35.235930 -120.635996 35 215ft 0kts
25-Jan-19 11:46 35.235930 -120.635996 35 215ft 0kts
25-Jan-19 11:47 35.235930 -120.635996 35 215ft 0kts

Navigation Log

Ident Type
Flight plan parsing failed, navigation log unavailable